createdAt,value
2022-10-13T00:01:10.437Z,100056.69
2022-10-13T00:02:42.726Z,100040.81
2022-10-13T00:04:17.241Z,100053.13
2022-10-13T00:05:51.949Z,100050.63
2022-10-13T00:07:25.172Z,100057.72
2022-10-13T00:09:00.430Z,100055.09
2022-10-13T00:10:35.930Z,100055.19
2022-10-13T00:12:09.165Z,100056.94
2022-10-13T00:13:42.340Z,100062.22
2022-10-13T00:15:15.738Z,100053.44
2022-10-13T00:16:48.896Z,100051.72
2022-10-13T00:18:21.197Z,100051.72
2022-10-13T00:19:58.641Z,100043.94
2022-10-13T00:21:31.904Z,100060.78
2022-10-13T00:23:04.089Z,100048.50
2022-10-13T00:24:37.622Z,100052.09
2022-10-13T00:26:13.408Z,100046.91
2022-10-13T00:27:45.537Z,100053.91
2022-10-13T00:29:18.744Z,100054.78
2022-10-13T00:30:52.136Z,100052.03
2022-10-13T00:32:25.425Z,100052.88
2022-10-13T00:34:00.441Z,100051.19
2022-10-13T00:35:35.482Z,100055.72
2022-10-13T00:37:09.176Z,100051.34
2022-10-13T00:38:42.013Z,100048.72
2022-10-13T00:40:15.171Z,100050.50
2022-10-13T00:41:48.356Z,100065.53
2022-10-13T00:43:23.467Z,100045.34
2022-10-13T00:45:02.003Z,100055.13
2022-10-13T00:46:37.378Z,100055.16
2022-10-13T00:48:10.775Z,100064.06
2022-10-13T00:49:42.930Z,100060.59
2022-10-13T00:51:21.319Z,100060.56
2022-10-13T00:52:57.369Z,100057.13
2022-10-13T00:54:31.458Z,100057.09
2022-10-13T00:56:06.442Z,100062.41
2022-10-13T00:57:42.921Z,100065.91
2022-10-13T00:59:23.194Z,100061.44
2022-10-13T01:01:00.354Z,100054.34
2022-10-13T01:02:38.035Z,100064.06
2022-10-13T01:04:12.376Z,100067.63
2022-10-13T01:05:46.953Z,100061.53
2022-10-13T01:07:21.612Z,100061.56
2022-10-13T01:08:55.175Z,100061.56
2022-10-13T01:10:42.437Z,100055.34
2022-10-13T01:12:30.421Z,100066.88
2022-10-13T01:14:12.496Z,100063.34
2022-10-13T01:15:54.409Z,100060.63
2022-10-13T01:17:34.768Z,100047.38
2022-10-13T01:19:22.559Z,100056.22
2022-10-13T01:21:05.338Z,100058.06
2022-10-13T01:22:57.030Z,100053.66
2022-10-13T01:24:44.539Z,100058.13
2022-10-13T01:26:43.894Z,100058.38
2022-10-13T01:28:39.427Z,100050.59
2022-10-13T01:30:17.432Z,100048.09
2022-10-13T01:31:57.843Z,100044.75
2022-10-13T01:33:40.807Z,100046.44
2022-10-13T01:35:19.274Z,100043.84
2022-10-13T01:36:58.068Z,100050.00
2022-10-13T01:38:40.544Z,100030.81
2022-10-13T01:40:19.786Z,100048.25
2022-10-13T01:41:58.384Z,100043.03
2022-10-13T01:43:37.727Z,100036.94
2022-10-13T01:45:16.127Z,100033.44
2022-10-13T01:46:52.721Z,100041.41
2022-10-13T01:48:27.099Z,100031.84
2022-10-13T01:50:01.520Z,100030.09
2022-10-13T01:51:36.387Z,100032.78
2022-10-13T01:53:10.076Z,100029.28
2022-10-13T01:54:43.969Z,100025.72
2022-10-13T01:56:16.208Z,100031.88
2022-10-13T01:57:50.777Z,100023.06
2022-10-13T01:59:26.106Z,100023.97
2022-10-13T02:01:13.349Z,100034.56
2022-10-13T02:02:58.423Z,100018.78
2022-10-13T02:04:45.252Z,100027.59
2022-10-13T02:06:24.110Z,100031.00
2022-10-13T02:08:04.803Z,100023.16
2022-10-13T02:09:50.810Z,100025.84
2022-10-13T02:11:25.309Z,100024.22
2022-10-13T02:13:02.609Z,100026.00
2022-10-13T02:14:39.492Z,100017.28
2022-10-13T02:16:14.418Z,100024.41
2022-10-13T02:17:49.636Z,100020.13
2022-10-13T02:19:23.647Z,100026.38
2022-10-13T02:20:57.323Z,100022.88
2022-10-13T02:22:38.037Z,100026.38
2022-10-13T02:24:11.585Z,100025.53
2022-10-13T02:25:45.750Z,100016.78
2022-10-13T02:27:18.147Z,100014.16
2022-10-13T02:28:51.605Z,100019.38
2022-10-13T02:30:26.829Z,100016.78
2022-10-13T02:32:00.278Z,100014.16
2022-10-13T02:33:35.011Z,100008.81
2022-10-13T02:35:09.019Z,100010.59
2022-10-13T02:36:42.634Z,100012.44
2022-10-13T02:38:16.024Z,100003.59
2022-10-13T02:39:49.242Z,100003.66
2022-10-13T02:41:23.107Z,100002.78
2022-10-13T02:42:56.616Z,100002.88
2022-10-13T02:44:28.835Z,100001.19
2022-10-13T02:46:01.990Z,100002.94
2022-10-13T02:47:35.289Z,100003.84
2022-10-13T02:49:12.743Z,99997.69
2022-10-13T02:50:45.964Z,100005.66
2022-10-13T02:52:19.361Z,100011.00
2022-10-13T02:53:52.826Z,100005.84
2022-10-13T02:55:26.669Z,100005.16
2022-10-13T02:57:02.375Z,100011.31
2022-10-13T02:58:35.531Z,100016.66
2022-10-13T03:00:09.242Z,100016.72
2022-10-13T03:01:44.544Z,100009.66
2022-10-13T03:03:19.041Z,100011.47
2022-10-13T03:04:54.899Z,100009.81
2022-10-13T03:06:28.178Z,100002.81
2022-10-13T03:08:01.555Z,100006.25
2022-10-13T03:09:33.923Z,100010.59
2022-10-13T03:11:07.465Z,100007.09
2022-10-13T03:12:40.635Z,100011.47
2022-10-13T03:14:13.427Z,100004.47
2022-10-13T03:15:47.695Z,100006.22
2022-10-13T03:17:20.941Z,100007.13
2022-10-13T03:18:53.183Z,100004.47
2022-10-13T03:20:28.077Z,100020.31
2022-10-13T03:22:00.204Z,100006.25
2022-10-13T03:23:34.150Z,100002.84
2022-10-13T03:25:08.483Z,100011.66
2022-10-13T03:26:42.079Z,100008.19
2022-10-13T03:28:15.230Z,100010.00
2022-10-13T03:29:52.643Z,100003.94
2022-10-13T03:31:26.151Z,100010.16
2022-10-13T03:33:07.050Z,100010.16
2022-10-13T03:34:40.223Z,100010.16
2022-10-13T03:36:14.935Z,100004.09
2022-10-13T03:37:48.817Z,100007.53
2022-10-13T03:39:22.521Z,100003.25
2022-10-13T03:40:55.728Z,100004.19
2022-10-13T03:42:27.859Z,99998.94
2022-10-13T03:44:01.756Z,100005.09
2022-10-13T03:45:36.695Z,100004.19
2022-10-13T03:47:09.949Z,99999.78
2022-10-13T03:48:43.598Z,100003.25
2022-10-13T03:50:16.780Z,100008.56
2022-10-13T03:51:51.742Z,100008.56
2022-10-13T03:53:24.371Z,99997.06
2022-10-13T03:54:57.627Z,100002.31
2022-10-13T03:56:31.023Z,99997.91
2022-10-13T03:58:03.649Z,99997.00
2022-10-13T03:59:37.226Z,100005.78
2022-10-13T04:01:10.587Z,99991.72
2022-10-13T04:02:50.263Z,99995.22
2022-10-13T04:04:24.002Z,99996.19
2022-10-13T04:06:02.963Z,100015.59
2022-10-13T04:07:36.510Z,100005.09
2022-10-13T04:09:18.147Z,99992.81
2022-10-13T04:10:59.903Z,100002.50
2022-10-13T04:12:33.152Z,99997.28
2022-10-13T04:14:06.384Z,99992.91
2022-10-13T04:15:39.268Z,99996.56
2022-10-13T04:17:12.823Z,99992.16
2022-10-13T04:18:45.657Z,99996.50
2022-10-13T04:20:19.371Z,99996.50
2022-10-13T04:21:52.692Z,99992.06
2022-10-13T04:23:27.844Z,99987.59
2022-10-13T04:25:01.035Z,99995.50
2022-10-13T04:26:37.279Z,99985.78
2022-10-13T04:28:12.789Z,99986.66
2022-10-13T04:29:46.409Z,99992.91
2022-10-13T04:31:19.416Z,99992.22
2022-10-13T04:32:52.572Z,99996.59
2022-10-13T04:34:25.825Z,99992.22
2022-10-13T04:35:59.250Z,99984.44
2022-10-13T04:37:32.428Z,99985.13
2022-10-13T04:39:07.233Z,99994.78
2022-10-13T04:40:41.443Z,99996.50
2022-10-13T04:42:15.280Z,99990.34
2022-10-13T04:43:48.305Z,99992.97
2022-10-13T04:45:21.640Z,99992.97
2022-10-13T04:46:55.867Z,99991.19
2022-10-13T04:48:29.779Z,99998.19
2022-10-13T04:50:02.923Z,99999.03
2022-10-13T04:51:36.207Z,100004.22
2022-10-13T04:53:09.377Z,99994.59
2022-10-13T04:54:44.650Z,99996.38
2022-10-13T04:56:18.432Z,99994.56
2022-10-13T04:57:51.687Z,99989.22
2022-10-13T04:59:24.856Z,99997.97
2022-10-13T05:00:58.831Z,99996.13
2022-10-13T05:02:32.080Z,100000.47
2022-10-13T05:04:06.708Z,99997.81
2022-10-13T05:05:42.331Z,100001.28
2022-10-13T05:07:18.253Z,99996.88
2022-10-13T05:08:52.725Z,99997.69
2022-10-13T05:10:30.205Z,100003.78
2022-10-13T05:12:07.606Z,100006.44
2022-10-13T05:13:41.092Z,100005.59
2022-10-13T05:15:14.296Z,100010.09
2022-10-13T05:16:46.373Z,100012.66
2022-10-13T05:18:21.524Z,100014.28
2022-10-13T05:19:55.440Z,100011.53
2022-10-13T05:21:30.292Z,100013.16
2022-10-13T05:23:03.443Z,100018.34
2022-10-13T05:24:37.623Z,100020.00
2022-10-13T05:26:14.895Z,100023.41
2022-10-13T05:27:48.026Z,100014.53
2022-10-13T05:29:21.160Z,100021.44
2022-10-13T05:30:54.417Z,100027.50
2022-10-13T05:32:27.802Z,100031.88
2022-10-13T05:34:01.722Z,100027.44
2022-10-13T05:35:34.935Z,100031.72
2022-10-13T05:37:08.198Z,100035.09
2022-10-13T05:38:41.785Z,100017.44
2022-10-13T05:40:15.461Z,100038.41
2022-10-13T05:41:50.049Z,100045.28
2022-10-13T05:43:26.670Z,100039.91
2022-10-13T05:44:59.892Z,100034.50
2022-10-13T05:46:33.544Z,100052.78
2022-10-13T05:48:07.145Z,100034.13
2022-10-13T05:49:41.052Z,100046.25
2022-10-13T05:51:18.619Z,100049.63
2022-10-13T05:52:52.988Z,100045.50
2022-10-13T05:54:30.993Z,100053.25
2022-10-13T05:56:08.836Z,100054.81
2022-10-13T05:57:47.282Z,100056.22
2022-10-13T05:59:26.787Z,100059.44
2022-10-13T06:01:00.379Z,100049.59
2022-10-13T06:02:38.118Z,100052.03
2022-10-13T06:04:16.672Z,100055.19
2022-10-13T06:05:50.467Z,100053.22
2022-10-13T06:07:24.183Z,100053.03
2022-10-13T06:08:57.453Z,100056.47
2022-10-13T06:10:30.893Z,100062.13
2022-10-13T06:12:04.181Z,100060.84
2022-10-13T06:13:38.673Z,100053.38
2022-10-13T06:15:12.388Z,100059.03
2022-10-13T06:16:45.661Z,100058.50
2022-10-13T06:18:18.882Z,100059.84
2022-10-13T06:19:52.208Z,100056.72
2022-10-13T06:21:25.489Z,100043.91
2022-10-13T06:22:59.018Z,100056.47
2022-10-13T06:24:32.296Z,100055.00
2022-10-13T06:26:07.781Z,100051.44
2022-10-13T06:27:42.559Z,100053.97
2022-10-13T06:29:17.431Z,100051.19
2022-10-13T06:30:56.583Z,100048.59
2022-10-13T06:32:30.056Z,100052.94
2022-10-13T06:34:03.293Z,100046.97
2022-10-13T06:35:37.562Z,100032.31
2022-10-13T06:37:11.441Z,100046.28
2022-10-13T06:38:44.719Z,100030.44
2022-10-13T06:40:18.298Z,100037.75
2022-10-13T06:41:52.807Z,100026.75
2022-10-13T06:43:39.595Z,100028.56
2022-10-13T06:45:17.698Z,100031.84
2022-10-13T06:46:51.002Z,100032.78
2022-10-13T06:48:24.986Z,100036.00
2022-10-13T06:49:58.171Z,100032.84
2022-10-13T06:51:31.438Z,100026.28
2022-10-13T06:53:04.641Z,100016.25
2022-10-13T06:54:38.048Z,100023.94
2022-10-13T06:56:11.605Z,100014.69
2022-10-13T06:57:45.083Z,100014.72
2022-10-13T06:59:18.485Z,100008.00
2022-10-13T07:00:53.839Z,100010.41
2022-10-13T07:02:27.163Z,100016.06
2022-10-13T07:04:00.344Z,100019.47
2022-10-13T07:05:33.947Z,100017.00
2022-10-13T07:07:07.234Z,100015.19
2022-10-13T07:08:40.495Z,100014.75
2022-10-13T07:10:13.673Z,100022.66
2022-10-13T07:11:46.920Z,100019.66
2022-10-13T07:13:23.160Z,100009.25
2022-10-13T07:14:56.427Z,100006.09
2022-10-13T07:16:30.986Z,99995.28
2022-10-13T07:18:04.181Z,100006.53
2022-10-13T07:19:38.172Z,100011.56
2022-10-13T07:21:11.360Z,100006.75
2022-10-13T07:22:45.662Z,100007.31
2022-10-13T07:24:20.527Z,100005.03
2022-10-13T07:25:55.163Z,100001.91
2022-10-13T07:27:29.010Z,100000.31
2022-10-13T07:29:02.214Z,100003.00
2022-10-13T07:30:35.391Z,100010.22
2022-10-13T07:32:10.348Z,100006.00
2022-10-13T07:33:45.449Z,100003.06
2022-10-13T07:35:19.118Z,100006.59
2022-10-13T07:36:52.237Z,99999.88
2022-10-13T07:38:25.686Z,100005.47
2022-10-13T07:40:00.512Z,99988.41
2022-10-13T07:41:35.636Z,99994.72
2022-10-13T07:43:09.046Z,99989.50
2022-10-13T07:44:42.348Z,99987.34
2022-10-13T07:46:16.764Z,99980.25
2022-10-13T07:47:51.342Z,99975.94
2022-10-13T07:49:24.759Z,99975.25
2022-10-13T07:50:58.415Z,99962.00
2022-10-13T07:52:31.794Z,99974.88
2022-10-13T07:54:05.083Z,99966.09
2022-10-13T07:55:39.577Z,99970.78
2022-10-13T07:57:12.845Z,99966.78
2022-10-13T07:58:48.239Z,99966.97
2022-10-13T08:00:21.659Z,99963.19
2022-10-13T08:01:54.864Z,99963.41
2022-10-13T08:03:30.271Z,99967.66
2022-10-13T08:05:04.613Z,99965.34
2022-10-13T08:06:37.806Z,99968.31
2022-10-13T08:08:14.941Z,99963.06
2022-10-13T08:09:48.252Z,99960.69
2022-10-13T08:11:21.440Z,99964.84
2022-10-13T08:12:54.626Z,99959.84
2022-10-13T08:14:27.937Z,99959.81
2022-10-13T08:16:02.212Z,99955.38
2022-10-13T08:17:35.490Z,99958.16
2022-10-13T08:19:11.218Z,99956.22
2022-10-13T08:20:46.136Z,99948.97
2022-10-13T08:22:19.849Z,99949.00
2022-10-13T08:23:53.057Z,99947.19
2022-10-13T08:25:26.146Z,99944.06
2022-10-13T08:26:59.388Z,99936.72
2022-10-13T08:28:33.040Z,99935.38
2022-10-13T08:30:07.194Z,99938.88
2022-10-13T08:31:43.348Z,99937.81
2022-10-13T08:33:16.719Z,99936.38
2022-10-13T08:34:52.056Z,99930.91
2022-10-13T08:36:25.331Z,99929.16
2022-10-13T08:37:58.470Z,99932.81
2022-10-13T08:39:32.726Z,99929.91
2022-10-13T08:41:17.318Z,99925.53
2022-10-13T08:42:51.175Z,99932.44
2022-10-13T08:46:27.435Z,99921.31
2022-10-13T08:48:03.716Z,99915.84
2022-10-13T08:49:37.257Z,99917.00
2022-10-13T08:51:16.183Z,99917.59
2022-10-13T08:52:54.449Z,99911.31
2022-10-13T08:54:28.047Z,99917.97
2022-10-13T08:56:06.259Z,99910.66
2022-10-13T08:57:41.462Z,99913.00
2022-10-13T08:59:18.176Z,99905.75
2022-10-13T09:00:58.835Z,99904.63
2022-10-13T09:02:32.848Z,99908.81
2022-10-13T09:04:17.984Z,99905.75
2022-10-13T09:06:04.233Z,99905.94
2022-10-13T09:07:41.194Z,99914.97
2022-10-13T09:09:16.499Z,99903.34
2022-10-13T09:10:51.854Z,99907.09
2022-10-13T09:12:26.531Z,99895.09
2022-10-13T09:14:02.395Z,99901.44
2022-10-13T09:15:44.510Z,99899.09
2022-10-13T09:17:22.727Z,99903.22
2022-10-13T09:18:56.079Z,99901.50
2022-10-13T09:20:29.210Z,99906.25
2022-10-13T09:22:15.909Z,99900.03
2022-10-13T09:23:53.986Z,99898.72
2022-10-13T09:25:27.332Z,99903.00
2022-10-13T09:27:07.219Z,99894.19
2022-10-13T09:28:44.873Z,99892.66
2022-10-13T09:30:37.254Z,99889.22
2022-10-13T09:32:19.189Z,99883.44
2022-10-13T09:34:00.538Z,99888.81
2022-10-13T09:35:35.120Z,99881.72
2022-10-13T09:37:19.154Z,99881.72
2022-10-13T09:39:09.853Z,99860.63
2022-10-13T09:40:45.157Z,99878.88
2022-10-13T09:42:23.288Z,99880.94
2022-10-13T09:44:10.107Z,99870.63
2022-10-13T09:45:44.604Z,99878.41
2022-10-13T09:47:22.518Z,99870.88
2022-10-13T09:48:59.016Z,99868.56
2022-10-13T09:50:34.483Z,99874.59
2022-10-13T09:52:15.565Z,99866.75
2022-10-13T09:53:49.353Z,99867.63
2022-10-13T09:55:33.009Z,99864.88
2022-10-13T09:57:15.854Z,99867.06
2022-10-13T09:58:57.736Z,99855.41
2022-10-13T10:00:31.756Z,99852.72
2022-10-13T10:02:20.364Z,99844.41
2022-10-13T10:03:58.318Z,99845.28
2022-10-13T10:05:43.160Z,99840.72
2022-10-13T10:07:22.139Z,99839.81
2022-10-13T10:09:04.633Z,99835.75
2022-10-13T10:10:42.236Z,99839.88
2022-10-13T10:12:24.244Z,99842.31
2022-10-13T10:14:03.871Z,99830.81
2022-10-13T10:15:46.206Z,99833.19
2022-10-13T10:17:28.343Z,99832.72
2022-10-13T10:19:11.719Z,99831.06
2022-10-13T10:21:02.054Z,99831.13
2022-10-13T10:22:41.727Z,99816.91
2022-10-13T10:24:24.843Z,99816.91
2022-10-13T10:26:05.407Z,99817.31
2022-10-13T10:27:44.069Z,99812.81
2022-10-13T10:29:30.725Z,99809.03
2022-10-13T10:31:14.760Z,99800.59
2022-10-13T10:32:53.813Z,99793.50
2022-10-13T10:34:41.489Z,99797.44
2022-10-13T10:36:19.343Z,99790.53
2022-10-13T10:38:13.593Z,99790.22
2022-10-13T10:41:41.825Z,99788.94
2022-10-13T10:43:44.914Z,99785.91
2022-10-13T10:45:24.280Z,99777.94
2022-10-13T10:47:02.620Z,99777.31
2022-10-13T10:48:39.098Z,99772.38
2022-10-13T10:50:16.503Z,99777.06
2022-10-13T10:51:51.329Z,99771.13
2022-10-13T10:53:34.442Z,99768.66
2022-10-13T10:55:19.627Z,99759.22
2022-10-13T10:56:57.967Z,99747.31
2022-10-13T10:58:43.273Z,99757.38
2022-10-13T11:00:20.009Z,99761.06
2022-10-13T11:02:06.343Z,99757.84
2022-10-13T11:03:47.906Z,99745.34
2022-10-13T11:05:21.564Z,99747.56
2022-10-13T11:06:54.851Z,99749.66
2022-10-13T11:08:30.180Z,99739.75
2022-10-13T11:10:18.713Z,99741.44
2022-10-13T11:11:52.089Z,99730.66
2022-10-13T11:13:26.901Z,99740.13
2022-10-13T11:15:12.820Z,99732.00
2022-10-13T11:17:10.597Z,99720.94
2022-10-13T11:19:25.843Z,99727.47
2022-10-13T11:21:00.541Z,99735.09
2022-10-13T11:22:33.689Z,99734.13
2022-10-13T11:24:47.653Z,99728.25
2022-10-13T11:26:33.134Z,99714.72
2022-10-13T11:28:39.859Z,99715.41
2022-10-13T11:30:51.070Z,99723.75
2022-10-13T11:32:45.065Z,99704.22
2022-10-13T11:34:30.379Z,99718.63
2022-10-13T11:36:33.723Z,99720.38
2022-10-13T11:38:30.754Z,99717.19
2022-10-13T11:40:18.090Z,99718.19
2022-10-13T11:41:58.653Z,99705.69
2022-10-13T11:43:49.149Z,99702.00
2022-10-13T11:45:38.003Z,99705.53
2022-10-13T11:47:23.902Z,99698.56
2022-10-13T11:49:30.451Z,99708.13
2022-10-13T11:51:16.648Z,99694.66
2022-10-13T11:53:02.641Z,99705.94
2022-10-13T11:54:41.336Z,99694.66
2022-10-13T11:56:21.458Z,99697.19
2022-10-13T11:58:09.530Z,99700.84
2022-10-13T11:59:47.916Z,99713.22
2022-10-13T12:01:22.008Z,99697.03
2022-10-13T12:02:56.821Z,99695.59
2022-10-13T12:04:30.328Z,99696.03
2022-10-13T12:06:06.138Z,99695.16
2022-10-13T12:07:43.046Z,99690.00
2022-10-13T12:09:19.962Z,99692.34
2022-10-13T12:10:56.459Z,99685.59
2022-10-13T12:12:30.247Z,99683.34
2022-10-13T12:14:22.409Z,99683.13
2022-10-13T12:16:03.144Z,99678.72
2022-10-13T12:17:39.100Z,99682.50
2022-10-13T12:19:22.437Z,99678.84
2022-10-13T12:20:57.528Z,99676.25
2022-10-13T12:22:30.929Z,99681.88
2022-10-13T12:24:09.700Z,99683.56
2022-10-13T12:25:49.315Z,99679.69
2022-10-13T12:27:23.376Z,99660.09
2022-10-13T12:28:58.538Z,99661.34
2022-10-13T12:30:36.453Z,99668.44
2022-10-13T12:32:20.838Z,99666.97
2022-10-13T12:33:56.989Z,99663.53
2022-10-13T12:35:33.399Z,99661.56
2022-10-13T12:37:15.603Z,99672.56
2022-10-13T12:38:51.703Z,99673.81
2022-10-13T12:40:26.391Z,99677.66
2022-10-13T12:42:02.001Z,99678.25
2022-10-13T12:43:35.736Z,99668.13
2022-10-13T12:45:16.019Z,99678.03
2022-10-13T12:46:52.295Z,99673.97
2022-10-13T12:48:31.256Z,99673.75
2022-10-13T12:50:33.190Z,99669.81
2022-10-13T12:52:14.563Z,99663.34
2022-10-13T12:53:49.278Z,99660.88
2022-10-13T12:55:24.175Z,99660.38
2022-10-13T12:57:00.443Z,99661.59
2022-10-13T12:58:35.923Z,99662.47
2022-10-13T13:00:22.962Z,99663.41
2022-10-13T13:02:02.287Z,99668.94
2022-10-13T13:03:37.201Z,99664.53
2022-10-13T13:05:32.247Z,99667.97
2022-10-13T13:07:29.605Z,99666.00
2022-10-13T13:09:24.732Z,99647.03
2022-10-13T13:10:59.993Z,99661.03
2022-10-13T13:12:33.410Z,99651.94
2022-10-13T13:14:40.353Z,99641.78
2022-10-13T13:16:18.367Z,99648.28
2022-10-13T13:17:58.419Z,99647.41
2022-10-13T13:19:33.579Z,99644.09
2022-10-13T13:21:08.207Z,99643.34
2022-10-13T13:22:42.808Z,99647.78
2022-10-13T13:24:28.775Z,99653.28
2022-10-13T13:26:15.305Z,99646.19
2022-10-13T13:27:48.776Z,99642.13
2022-10-13T13:29:23.059Z,99645.66
2022-10-13T13:30:56.193Z,99647.75
2022-10-13T13:32:31.058Z,99640.63
2022-10-13T13:34:04.216Z,99644.41
2022-10-13T13:35:38.878Z,99646.28
2022-10-13T13:37:24.170Z,99642.72
2022-10-13T13:38:58.797Z,99634.63
2022-10-13T13:40:32.519Z,99641.00
2022-10-13T13:42:05.953Z,99637.78
2022-10-13T13:43:39.881Z,99631.69
2022-10-13T13:45:14.464Z,99628.97
2022-10-13T13:46:47.641Z,99618.31
2022-10-13T13:48:21.061Z,99627.28
2022-10-13T13:49:55.955Z,99621.63
2022-10-13T13:51:29.371Z,99627.75
2022-10-13T13:53:02.986Z,99619.56
2022-10-13T13:54:37.778Z,99626.91
2022-10-13T13:56:14.099Z,99622.38
2022-10-13T13:57:47.485Z,99628.63
2022-10-13T13:59:20.707Z,99628.13
2022-10-13T14:01:00.270Z,99633.28
2022-10-13T14:02:33.501Z,99628.78
2022-10-13T14:04:06.670Z,99631.34
2022-10-13T14:05:40.470Z,99632.53
2022-10-13T14:07:15.272Z,99630.72
2022-10-13T14:08:48.830Z,99626.44
2022-10-13T14:10:23.525Z,99625.81
2022-10-13T14:11:56.818Z,99621.50
2022-10-13T14:13:30.152Z,99626.06
2022-10-13T14:15:03.539Z,99633.16
2022-10-13T14:16:36.751Z,99640.75
2022-10-13T14:18:13.484Z,99626.75
2022-10-13T14:19:46.850Z,99630.66
2022-10-13T14:21:20.082Z,99630.03
2022-10-13T14:22:53.731Z,99622.09
2022-10-13T14:24:26.987Z,99631.38
2022-10-13T14:26:06.028Z,99625.78
2022-10-13T14:27:39.255Z,99629.94
2022-10-13T14:29:14.803Z,99623.91
2022-10-13T14:30:48.164Z,99629.75
2022-10-13T14:32:22.001Z,99628.13
2022-10-13T14:33:54.708Z,99621.63
2022-10-13T14:35:30.089Z,99618.41
2022-10-13T14:37:03.306Z,99627.47
2022-10-13T14:38:36.977Z,99625.53
2022-10-13T14:40:11.353Z,99630.91
2022-10-13T14:41:45.964Z,99628.44
2022-10-13T14:43:19.063Z,99635.53
2022-10-13T14:44:52.237Z,99629.41
2022-10-13T14:46:25.883Z,99633.72
2022-10-13T14:47:59.111Z,99624.88
2022-10-13T14:49:33.148Z,99629.16
2022-10-13T14:51:07.304Z,99625.97
2022-10-13T14:52:40.572Z,99626.09
2022-10-13T14:54:13.872Z,99627.06
2022-10-13T14:55:47.058Z,99637.19
2022-10-13T14:57:22.586Z,99631.19
2022-10-13T14:58:59.331Z,99641.53
2022-10-13T15:00:38.527Z,99641.97
2022-10-13T15:02:16.151Z,99633.16
2022-10-13T15:03:59.069Z,99636.41
2022-10-13T15:05:32.399Z,99632.09
2022-10-13T15:07:05.891Z,99637.69
2022-10-13T15:08:40.191Z,99644.16
2022-10-13T15:10:13.572Z,99643.72
2022-10-13T15:11:47.914Z,99645.66
2022-10-13T15:13:22.376Z,99646.09
2022-10-13T15:14:55.879Z,99642.25
2022-10-13T15:16:32.681Z,99643.53
2022-10-13T15:18:06.468Z,99644.19
2022-10-13T15:19:39.615Z,99650.00
2022-10-13T15:21:14.558Z,99643.38
2022-10-13T15:22:48.657Z,99634.03
2022-10-13T15:24:22.664Z,99640.56
2022-10-13T15:26:00.937Z,99637.44
2022-10-13T15:27:40.748Z,99638.72
2022-10-13T15:29:16.729Z,99654.28
2022-10-13T15:30:50.021Z,99647.59
2022-10-13T15:32:23.557Z,99651.66
2022-10-13T15:34:02.289Z,99650.16
2022-10-13T15:35:35.615Z,99645.19
2022-10-13T15:37:09.037Z,99646.47
2022-10-13T15:38:42.507Z,99646.03
2022-10-13T15:40:15.934Z,99644.72
2022-10-13T15:41:49.330Z,99644.38
2022-10-13T15:43:22.518Z,99646.44
2022-10-13T15:45:09.341Z,99640.59
2022-10-13T15:47:05.497Z,99651.94
2022-10-13T15:48:38.689Z,99649.13
2022-10-13T15:50:12.155Z,99653.22
2022-10-13T15:51:45.283Z,99645.97
2022-10-13T15:53:18.809Z,99639.28
2022-10-13T15:54:52.075Z,99649.56
2022-10-13T15:56:25.280Z,99641.91
2022-10-13T15:57:58.725Z,99644.78
2022-10-13T15:59:32.115Z,99642.41
2022-10-13T16:01:10.671Z,99647.28
2022-10-13T16:02:44.979Z,99648.53
2022-10-13T16:04:18.136Z,99650.38
2022-10-13T16:05:51.343Z,99651.97
2022-10-13T16:07:24.962Z,99650.03
2022-10-13T16:08:58.226Z,99654.13
2022-10-13T16:10:31.384Z,99645.91
2022-10-13T16:12:04.774Z,99655.25
2022-10-13T16:13:38.412Z,99650.47
2022-10-13T16:15:12.532Z,99652.53
2022-10-13T16:16:47.122Z,99654.66
2022-10-13T16:18:20.346Z,99637.63
2022-10-13T16:19:53.744Z,99646.50
2022-10-13T16:21:27.544Z,99642.19
2022-10-13T16:23:00.811Z,99645.22
2022-10-13T16:24:34.266Z,99658.00
2022-10-13T16:26:08.154Z,99656.63
2022-10-13T16:27:44.243Z,99660.63
2022-10-13T16:29:17.926Z,99655.63
2022-10-13T16:30:51.153Z,99640.63
2022-10-13T16:32:25.975Z,99648.22
2022-10-13T16:34:00.261Z,99645.09
2022-10-13T16:35:34.355Z,99647.34
2022-10-13T16:37:07.506Z,99655.72
2022-10-13T16:38:41.628Z,99652.78
2022-10-13T16:40:14.886Z,99653.22
2022-10-13T16:41:48.340Z,99661.47
2022-10-13T16:43:22.107Z,99659.91
2022-10-13T16:45:00.012Z,99666.53
2022-10-13T16:46:34.238Z,99668.69
2022-10-13T16:48:08.712Z,99662.78
2022-10-13T16:49:41.861Z,99652.41
2022-10-13T16:51:18.876Z,99658.09
2022-10-13T16:52:52.032Z,99660.13
2022-10-13T16:54:26.840Z,99653.41
2022-10-13T16:55:59.964Z,99664.06
2022-10-13T16:57:33.913Z,99666.13
2022-10-13T16:59:08.290Z,99673.69
2022-10-13T17:00:41.828Z,99675.91
2022-10-13T17:02:16.009Z,99676.03
2022-10-13T17:03:52.547Z,99676.19
2022-10-13T17:05:26.916Z,99679.97
2022-10-13T17:07:00.169Z,99675.66
2022-10-13T17:08:33.958Z,99678.56
2022-10-13T17:10:10.291Z,99675.09
2022-10-13T17:11:43.868Z,99669.94
2022-10-13T17:13:17.138Z,99670.25
2022-10-13T17:14:50.301Z,99672.28
2022-10-13T17:16:24.006Z,99673.28
2022-10-13T17:17:57.596Z,99673.38
2022-10-13T17:19:32.217Z,99667.25
2022-10-13T17:21:09.111Z,99669.28
2022-10-13T17:22:42.597Z,99682.78
2022-10-13T17:24:17.939Z,99666.13
2022-10-13T17:25:51.844Z,99668.34
2022-10-13T17:27:25.362Z,99675.78
2022-10-13T17:28:59.271Z,99671.78
2022-10-13T17:30:33.255Z,99665.75
2022-10-13T17:32:06.740Z,99658.28
2022-10-13T17:33:41.323Z,99666.09
2022-10-13T17:35:18.306Z,99669.09
2022-10-13T17:36:51.707Z,99673.69
2022-10-13T17:38:24.876Z,99672.91
2022-10-13T17:39:58.170Z,99663.34
2022-10-13T17:41:31.876Z,99671.41
2022-10-13T17:43:05.361Z,99672.41
2022-10-13T17:44:38.692Z,99667.38
2022-10-13T17:46:34.990Z,99675.63
2022-10-13T17:48:06.955Z,99678.88
2022-10-13T17:49:42.330Z,99674.84
2022-10-13T17:51:21.199Z,99681.44
2022-10-13T17:52:55.723Z,99681.44
2022-10-13T17:54:29.279Z,99683.31
2022-10-13T17:56:02.833Z,99665.28
2022-10-13T17:57:36.114Z,99681.75
2022-10-13T17:59:11.616Z,99670.34
2022-10-13T18:01:13.856Z,99674.97
2022-10-13T18:02:38.217Z,99675.09
2022-10-13T18:04:14.028Z,99684.28
2022-10-13T18:05:47.691Z,99677.34
2022-10-13T18:07:22.721Z,99676.63
2022-10-13T18:08:56.478Z,99677.78
2022-10-13T18:10:40.841Z,99678.03
2022-10-13T18:12:23.184Z,99679.97
2022-10-13T18:13:56.414Z,99672.25
2022-10-13T18:15:28.836Z,99680.56
2022-10-13T18:17:02.073Z,99681.22
2022-10-13T18:18:35.814Z,99678.16
2022-10-13T18:20:09.763Z,99671.34
2022-10-13T18:21:44.393Z,99676.81
2022-10-13T18:23:18.956Z,99683.00
2022-10-13T18:24:56.927Z,99675.22
2022-10-13T18:26:35.027Z,99677.06
2022-10-13T18:28:08.187Z,99676.84
2022-10-13T18:29:41.439Z,99683.25
2022-10-13T18:31:17.198Z,99674.88
2022-10-13T18:32:50.390Z,99671.78
2022-10-13T18:34:24.752Z,99670.19
2022-10-13T18:35:58.050Z,99679.28
2022-10-13T18:37:31.443Z,99681.47
2022-10-13T18:39:07.950Z,99678.25
2022-10-13T18:40:41.097Z,99674.94
2022-10-13T18:42:14.274Z,99686.72
2022-10-13T18:43:49.450Z,99679.78
2022-10-13T18:45:24.352Z,99677.03
2022-10-13T18:46:57.529Z,99661.22